Lake Bronson, Minnesota
Current Conditions -  °F | °C
As of 6:55 PM on Monday 26 Jan 2015 (Local Time) from KHCO Reporting Station
Overcast Overcast  
Wind Chill: 18°   Ceiling: 800
Heat Index: 27°   Visibility: 10mi
Dew Point: 25°   Wind: 8mph
Humidity: 93%   Direction: 350°N
Pressure: 29.97"   Gusts: NA
Location:  48.74°N, 96.66°W
Report Text: KHCO 270055Z AUTO 35007KT 10SM OVC008 M03/M04 A2997 RMK AO2
Loading
Personal Weather Stations






























Interactive Weather Map New forecast layout! Learn more

10-Day Weather Forecast

Advertisements
Track Severe Weather on mobile